Time;durP1;ratioP1;P1;durP2;ratioP2;P2;SDS_P1;SDS_P2;PMS_P1;PMS_P2;Temp;Humidity;BMP_temperature;BMP_pressure;BME280_temperature;BME280_humidity;BME280_pressure;Samples;Min_cycle;Max_cycle;Signal;HPM_P1;HPM_P2
2021/07/29 00:02:07;;;;;;;7.90;2.47;;;;;;;18.58;60.62;100839.66;5091869;28;20491;-63
2021/07/29 00:04:35;;;;;;;6.22;2.30;;;;;;;18.74;60.57;100838.06;5092124;28;20048;-63
2021/07/29 00:07:03;;;;;;;6.45;2.40;;;;;;;18.62;59.79;100829.63;5092072;28;20078;-63
2021/07/29 00:09:30;;;;;;;9.27;2.50;;;;;;;18.50;59.62;100829.44;5091867;28;20040;-62
2021/07/29 00:11:58;;;;;;;4.05;2.10;;;;;;;18.69;60.69;100829.16;5091766;28;20044;-63
2021/07/29 00:14:25;;;;;;;5.95;2.40;;;;;;;18.79;60.43;100820.59;5091990;28;20677;-62
2021/07/29 00:16:58;;;;;;;7.95;2.30;;;;;;;18.67;60.26;100823.94;5090314;28;20403;-61
2021/07/29 00:19:26;;;;;;;5.28;2.35;;;;;;;18.76;61.40;100823.13;5091714;28;20036;-62
2021/07/29 00:21:53;;;;;;;6.97;2.40;;;;;;;18.61;59.62;100819.69;5092101;28;20051;-61
2021/07/29 00:24:24;;;;;;;6.97;2.30;;;;;;;18.51;60.42;100822.78;5091876;28;20047;-62
2021/07/29 00:26:51;;;;;;;5.78;2.00;;;;;;;18.45;60.05;100821.31;5091667;28;20040;-62
2021/07/29 00:29:19;;;;;;;5.50;1.90;;;;;;;18.38;60.61;100818.22;5091570;28;20044;-61
2021/07/29 00:31:46;;;;;;;5.82;2.40;;;;;;;18.38;60.81;100820.97;5091882;28;20044;-62
2021/07/29 00:34:14;;;;;;;5.43;2.35;;;;;;;18.46;61.74;100822.94;5095368;28;20040;-62
2021/07/29 00:36:42;;;;;;;5.68;1.90;;;;;;;18.40;61.00;100818.69;5095751;28;20039;-62
2021/07/29 00:39:09;;;;;;;5.72;2.35;;;;;;;18.47;62.85;100810.75;5095624;28;20042;-62
2021/07/29 00:41:37;;;;;;;7.13;2.38;;;;;;;18.51;61.61;100818.06;5095590;28;20048;-61
2021/07/29 00:44:06;;;;;;;4.20;2.03;;;;;;;18.43;61.04;100820.81;5095211;28;20042;-59
2021/07/29 00:46:35;;;;;;;6.88;2.50;;;;;;;18.40;61.76;100818.69;5095007;28;20048;-62
2021/07/29 00:49:04;;;;;;;5.47;2.33;;;;;;;18.39;61.54;100820.63;5095249;28;20607;-62
2021/07/29 00:51:32;;;;;;;7.70;2.58;;;;;;;18.46;62.11;100817.41;5095039;28;20032;-63
2021/07/29 00:54:01;;;;;;;6.47;2.38;;;;;;;18.46;61.24;100820.97;5073979;28;20411;-63
2021/07/29 00:56:29;;;;;;;5.97;2.20;;;;;;;18.39;60.67;100819.84;5093925;28;20040;-62
2021/07/29 00:58:57;;;;;;;5.65;2.10;;;;;;;18.44;64.48;100811.41;5094271;28;20049;-63
2021/07/29 01:01:24;;;;;;;6.15;2.30;;;;;;;18.55;63.40;100804.44;5093296;28;20040;-63
2021/07/29 01:03:52;;;;;;;6.00;2.35;;;;;;;18.52;60.60;100803.16;5095010;28;20040;-63
2021/07/29 01:06:21;;;;;;;10.73;2.70;;;;;;;18.37;61.27;100800.81;5094868;28;20048;-63
2021/07/29 01:09:08;;;;;;;6.70;2.60;;;;;;;18.32;61.18;100806.50;5094065;28;20043;-63
2021/07/29 01:11:43;;;;;;;6.43;2.47;;;;;;;18.43;63.83;100798.75;5094364;28;20036;-62
2021/07/29 01:14:11;;;;;;;8.45;2.30;;;;;;;18.37;61.63;100794.50;5094964;28;20044;-63
2021/07/29 01:16:39;;;;;;;5.18;2.10;;;;;;;18.38;62.18;100796.16;5094256;28;20787;-63
2021/07/29 01:19:07;;;;;;;5.82;2.30;;;;;;;18.33;61.20;100799.88;5095044;28;20422;-62
2021/07/29 01:21:51;;;;;;;5.72;2.38;;;;;;;18.32;61.23;100803.75;5094849;28;20044;-63
2021/07/29 01:24:18;;;;;;;5.63;2.17;;;;;;;18.40;63.71;100794.69;5094802;28;20040;-61
2021/07/29 01:26:46;;;;;;;6.47;2.30;;;;;;;18.43;60.78;100787.72;5092714;28;20040;-63
2021/07/29 01:29:14;;;;;;;7.05;2.30;;;;;;;18.41;60.65;100798.25;5094806;28;20044;-63
2021/07/29 01:31:41;;;;;;;7.25;2.35;;;;;;;18.41;60.84;100787.22;5094719;28;20040;-63
2021/07/29 01:34:09;;;;;;;5.72;2.50;;;;;;;18.33;60.17;100793.50;5094744;28;20040;-63
2021/07/29 01:36:36;;;;;;;5.68;2.17;;;;;;;18.30;61.07;100789.47;5093257;28;20056;-63
2021/07/29 01:39:04;;;;;;;4.72;1.98;;;;;;;18.31;64.35;100794.66;5094326;28;20395;-63
2021/07/29 01:41:32;;;;;;;5.45;2.28;;;;;;;18.20;60.72;100801.59;5094435;28;20336;-63
2021/07/29 01:43:59;;;;;;;4.30;2.00;;;;;;;18.16;61.63;100799.78;5094272;28;20040;-63
2021/07/29 01:46:27;;;;;;;6.80;2.08;;;;;;;18.17;61.31;100796.72;5093860;28;20040;-63
2021/07/29 01:48:55;;;;;;;5.07;2.10;;;;;;;18.16;63.31;100784.09;5094270;28;20071;-63
2021/07/29 01:51:22;;;;;;;6.63;2.47;;;;;;;18.07;60.64;100784.06;5094366;28;20040;-63
2021/07/29 01:53:50;;;;;;;14.15;2.60;;;;;;;18.10;60.96;100788.13;5094045;28;20128;-61
2021/07/29 01:56:20;;;;;;;3.83;1.83;;;;;;;18.22;62.79;100793.81;5094154;28;20047;-63
2021/07/29 01:58:48;;;;;;;4.43;2.05;;;;;;;18.28;64.83;100792.56;5093902;28;20097;-62
2021/07/29 02:01:23;;;;;;;5.05;2.03;;;;;;;18.14;60.92;100794.63;5094122;28;20068;-63
2021/07/29 02:03:51;;;;;;;10.60;2.88;;;;;;;17.95;60.26;100794.06;5093897;28;20048;-63
2021/07/29 02:06:19;;;;;;;6.15;2.00;;;;;;;17.95;63.32;100813.38;5093894;28;20044;-62
2021/07/29 02:08:46;;;;;;;7.47;2.35;;;;;;;18.15;60.96;100810.03;5093573;28;20498;-63
2021/07/29 02:11:14;;;;;;;5.72;2.20;;;;;;;17.99;61.01;100806.91;5091964;28;20040;-62
2021/07/29 02:13:42;;;;;;;5.47;2.30;;;;;;;17.97;61.59;100803.66;5093685;28;20060;-63
2021/07/29 02:16:13;;;;;;;7.20;2.05;;;;;;;17.88;62.80;100800.84;5093557;28;20515;-63
2021/07/29 02:18:41;;;;;;;7.47;2.33;;;;;;;18.02;63.72;100794.41;5093508;28;20517;-63
2021/07/29 02:21:09;;;;;;;9.63;2.80;;;;;;;18.12;60.46;100798.84;5093664;28;20032;-63
2021/07/29 02:23:38;;;;;;;9.55;2.55;;;;;;;17.92;61.30;100805.72;5093064;28;20040;-63
2021/07/29 02:26:06;;;;;;;7.25;2.10;;;;;;;17.89;62.09;100801.66;5093350;28;20123;-62
2021/07/29 02:28:33;;;;;;;10.57;2.60;;;;;;;17.92;61.91;100794.69;5093775;28;20043;-63
2021/07/29 02:31:01;;;;;;;11.07;2.67;;;;;;;17.78;61.26;100794.78;5093071;28;20391;-60
2021/07/29 02:33:29;;;;;;;6.18;2.22;;;;;;;17.92;64.65;100791.94;5093518;28;20066;-63
2021/07/29 02:35:56;;;;;;;10.30;2.40;;;;;;;17.84;62.16;100799.84;5093224;28;20048;-63
2021/07/29 02:38:24;;;;;;;5.53;2.05;;;;;;;17.91;62.14;100804.09;5093016;28;20390;-62
2021/07/29 02:40:51;;;;;;;12.98;3.03;;;;;;;17.83;61.87;100798.22;5093406;28;20127;-62
2021/07/29 02:43:19;;;;;;;5.10;2.17;;;;;;;17.77;63.19;100799.44;5093006;28;20047;-63
2021/07/29 02:45:46;;;;;;;8.60;2.53;;;;;;;17.87;62.64;100798.41;5092965;28;20032;-63
2021/07/29 02:48:14;;;;;;;6.88;2.25;;;;;;;17.72;61.92;100809.81;5092996;28;20040;-62
2021/07/29 02:50:41;;;;;;;6.88;2.63;;;;;;;17.74;62.80;100804.81;5093322;28;20040;-62
2021/07/29 02:53:09;;;;;;;10.60;2.70;;;;;;;17.65;62.18;100818.53;5092541;28;20051;-60
2021/07/29 02:55:36;;;;;;;8.43;2.90;;;;;;;17.66;62.59;100822.94;5092527;28;20027;-62
2021/07/29 02:58:04;;;;;;;7.22;3.17;;;;;;;17.63;62.72;100820.78;5093171;28;20517;-63
2021/07/29 03:00:31;;;;;;;10.32;2.78;;;;;;;17.79;62.94;100823.94;5093017;28;20044;-63
2021/07/29 03:02:59;;;;;;;8.57;2.90;;;;;;;17.81;63.07;100827.25;5092934;28;20089;-62
2021/07/29 03:05:27;;;;;;;8.68;2.67;;;;;;;17.77;63.37;100820.69;5092858;28;20033;-63
2021/07/29 03:07:54;;;;;;;10.00;3.00;;;;;;;17.85;65.49;100823.53;5092415;28;20047;-62
2021/07/29 03:10:22;;;;;;;10.00;2.70;;;;;;;17.98;64.14;100815.47;5092503;28;20612;-62
2021/07/29 03:12:49;;;;;;;15.23;2.83;;;;;;;17.79;62.49;100810.97;5092871;28;20036;-62
2021/07/29 03:15:17;;;;;;;9.93;3.03;;;;;;;17.64;62.74;100817.72;5091450;28;20138;-63
2021/07/29 03:17:45;;;;;;;5.43;2.15;;;;;;;17.70;64.03;100806.56;5092187;28;20505;-63
2021/07/29 03:20:13;;;;;;;8.35;2.47;;;;;;;17.60;63.51;100813.97;5092665;28;20048;-63
2021/07/29 03:22:41;;;;;;;6.47;2.30;;;;;;;17.68;65.93;100820.66;5092385;28;20032;-62
2021/07/29 03:25:09;;;;;;;11.85;3.30;;;;;;;17.57;63.33;100827.56;5092594;28;20044;-63
2021/07/29 03:27:36;;;;;;;7.90;3.05;;;;;;;17.62;63.84;100831.00;5092177;28;20422;-62
2021/07/29 03:30:04;;;;;;;7.78;2.67;;;;;;;17.56;64.29;100831.47;5092538;28;20036;-62
2021/07/29 03:32:32;;;;;;;11.45;3.17;;;;;;;17.55;63.36;100835.31;5092577;28;20048;-63
2021/07/29 03:35:03;;;;;;;8.68;2.60;;;;;;;17.43;63.91;100827.63;5090844;28;20040;-62
2021/07/29 03:37:31;;;;;;;4.40;1.85;;;;;;;17.43;66.81;100825.69;5092182;28;20067;-63
2021/07/29 03:40:04;;;;;;;12.20;2.92;;;;;;;17.40;64.03;100823.56;5092441;28;20051;-62
2021/07/29 03:42:33;;;;;;;10.07;2.60;;;;;;;17.48;64.19;100824.75;5092342;28;20052;-62
2021/07/29 03:45:01;;;;;;;8.23;2.90;;;;;;;17.36;64.03;100822.56;5091028;28;20075;-63
2021/07/29 03:47:29;;;;;;;8.90;2.42;;;;;;;17.40;65.12;100839.28;5091732;28;20062;-63
2021/07/29 03:49:58;;;;;;;8.70;2.65;;;;;;;17.34;64.72;100835.03;5092220;28;20478;-63
2021/07/29 03:52:25;;;;;;;7.68;2.78;;;;;;;17.35;64.66;100833.91;5092058;28;20043;-64
2021/07/29 03:54:54;;;;;;;8.93;2.88;;;;;;;17.33;64.88;100836.16;5092442;28;20032;-63
2021/07/29 03:57:23;;;;;;;8.27;2.95;;;;;;;17.59;64.35;100834.38;5092182;28;20052;-63
2021/07/29 03:59:51;;;;;;;11.57;2.97;;;;;;;17.55;64.58;100836.13;5092345;28;20044;-63
2021/07/29 04:02:18;;;;;;;8.40;2.42;;;;;;;17.58;65.05;100837.44;5092222;28;20032;-63
2021/07/29 04:04:47;;;;;;;8.45;2.88;;;;;;;17.58;64.95;100838.28;5077802;28;20036;-63
2021/07/29 04:07:15;;;;;;;9.60;2.70;;;;;;;17.44;64.27;100841.09;5092942;28;20055;-62
2021/07/29 04:09:42;;;;;;;9.48;3.13;;;;;;;17.44;64.55;100846.63;5096221;28;20056;-61
2021/07/29 04:12:10;;;;;;;6.40;2.47;;;;;;;17.42;66.15;100848.06;5096127;28;20036;-63
2021/07/29 04:14:38;;;;;;;7.57;2.30;;;;;;;17.46;66.55;100854.53;5095844;28;20490;-62
2021/07/29 04:17:06;;;;;;;11.52;3.13;;;;;;;17.48;64.33;100851.47;5095680;28;20072;-63
2021/07/29 04:19:34;;;;;;;9.50;2.78;;;;;;;17.33;64.57;100856.25;5095473;28;20044;-62
2021/07/29 04:22:04;;;;;;;14.10;3.45;;;;;;;17.29;64.84;100859.94;5095998;28;20040;-63
2021/07/29 04:24:32;;;;;;;9.55;3.58;;;;;;;17.36;65.48;100850.09;5096171;28;20133;-62
2021/07/29 04:27:00;;;;;;;9.35;3.47;;;;;;;17.42;65.69;100854.38;5095606;28;20036;-63
2021/07/29 04:29:31;;;;;;;8.43;2.95;;;;;;;17.40;64.86;100850.31;5097052;28;20052;-63
2021/07/29 04:31:59;;;;;;;8.88;3.10;;;;;;;17.41;66.16;100850.00;5096391;28;20680;-62
2021/07/29 04:34:27;;;;;;;11.07;3.53;;;;;;;17.41;65.10;100855.50;5095085;28;20047;-63
2021/07/29 04:36:55;;;;;;;11.77;3.20;;;;;;;17.52;65.26;100849.75;5096133;28;20044;-62
2021/07/29 04:39:22;;;;;;;9.93;3.05;;;;;;;17.32;64.62;100854.63;5095871;28;20048;-63
2021/07/29 04:41:50;;;;;;;9.48;2.72;;;;;;;17.31;65.65;100857.69;5095663;28;20051;-63
2021/07/29 04:44:18;;;;;;;9.20;3.00;;;;;;;17.24;65.51;100863.63;5095304;28;20044;-63
2021/07/29 04:46:45;;;;;;;12.93;3.50;;;;;;;17.35;65.72;100858.69;5095127;28;20055;-63
2021/07/29 04:49:18;;;;;;;12.35;3.50;;;;;;;17.41;65.18;100863.78;5095047;28;20032;-64
2021/07/29 04:51:47;;;;;;;8.02;2.60;;;;;;;17.43;66.60;100866.19;5095584;28;20047;-62
2021/07/29 04:54:15;;;;;;;6.20;2.60;;;;;;;17.32;65.83;100870.31;5095736;28;20036;-63
2021/07/29 04:56:42;;;;;;;9.57;2.80;;;;;;;17.41;65.09;100869.28;5095267;28;20048;-63
2021/07/29 04:59:10;;;;;;;5.22;2.20;;;;;;;17.33;67.99;100870.00;5094987;28;20074;-63
2021/07/29 05:01:38;;;;;;;13.25;3.38;;;;;;;17.40;66.24;100877.84;5096385;28;20094;-63
2021/07/29 05:04:07;;;;;;;6.43;2.45;;;;;;;17.32;65.92;100871.16;5094740;28;20040;-62
2021/07/29 05:06:35;;;;;;;9.93;3.03;;;;;;;17.48;66.17;100868.00;5095120;28;20367;-59
2021/07/29 05:09:03;;;;;;;11.80;3.22;;;;;;;17.62;65.88;100866.00;5094871;28;20047;-62
2021/07/29 05:11:31;;;;;;;8.55;2.58;;;;;;;17.47;66.14;100867.22;5083075;28;20162;-60
2021/07/29 05:13:59;;;;;;;12.43;3.50;;;;;;;17.45;65.79;100875.78;5093980;28;20042;-60
2021/07/29 05:16:26;;;;;;;12.20;3.38;;;;;;;17.52;65.16;100874.53;5094028;28;20383;-58
2021/07/29 05:18:54;;;;;;;9.80;3.05;;;;;;;17.43;65.40;100872.50;5093758;28;20048;-57
2021/07/29 05:21:22;;;;;;;10.40;3.00;;;;;;;17.45;66.09;100875.78;5094334;28;20032;-61
2021/07/29 05:23:50;;;;;;;14.38;3.70;;;;;;;17.44;65.47;100874.16;5093202;28;20384;-60
2021/07/29 05:26:18;;;;;;;5.32;2.03;;;;;;;17.31;67.54;100877.78;5094666;28;20127;-58
2021/07/29 05:28:46;;;;;;;13.52;3.47;;;;;;;17.50;66.15;100887.81;5093547;28;20498;-60
2021/07/29 05:31:14;;;;;;;14.30;3.33;;;;;;;17.60;65.45;100887.53;5094221;28;20051;-58
2021/07/29 05:33:42;;;;;;;17.23;3.78;;;;;;;17.33;65.38;100878.28;5093696;28;20052;-58
2021/07/29 05:36:09;;;;;;;12.32;3.05;;;;;;;17.40;65.91;100884.16;5094242;28;20032;-60
2021/07/29 05:38:37;;;;;;;12.90;4.13;;;;;;;17.54;65.59;100888.81;5094065;28;20130;-61
2021/07/29 05:41:07;;;;;;;13.20;4.13;;;;;;;17.50;65.52;100888.59;5092720;28;20517;-59
2021/07/29 05:43:36;;;;;;;11.57;3.50;;;;;;;17.73;65.02;100889.44;5093976;28;20480;-59
2021/07/29 05:46:11;;;;;;;13.38;3.28;;;;;;;17.57;65.90;100885.41;5093512;28;20375;-58
2021/07/29 05:48:39;;;;;;;11.80;3.20;;;;;;;17.51;65.26;100892.19;5093616;28;20116;-61
2021/07/29 05:51:07;;;;;;;9.25;2.80;;;;;;;17.56;65.64;100897.59;5094056;28;20028;-60
2021/07/29 05:53:34;;;;;;;12.25;3.58;;;;;;;17.49;66.80;100899.97;5093974;28;20466;-58
2021/07/29 05:56:02;;;;;;;15.25;3.83;;;;;;;17.81;64.39;100896.94;5093533;28;20446;-58
2021/07/29 05:58:31;;;;;;;9.18;2.88;;;;;;;17.64;65.82;100899.56;5093878;28;20040;-57
2021/07/29 06:00:58;;;;;;;9.27;3.17;;;;;;;17.55;66.32;100890.44;5093257;28;20402;-53
2021/07/29 06:03:26;;;;;;;7.18;2.65;;;;;;;17.59;67.00;100900.50;5092103;28;20078;-54
2021/07/29 06:05:55;;;;;;;12.52;3.85;;;;;;;17.56;66.17;100898.38;5093405;28;20109;-57
2021/07/29 06:08:24;;;;;;;19.70;3.38;;;;;;;17.57;65.69;100900.00;5093490;28;20048;-54
2021/07/29 06:10:52;;;;;;;9.77;3.00;;;;;;;17.61;66.36;100894.69;5087147;28;20068;-56
2021/07/29 06:13:19;;;;;;;12.68;3.28;;;;;;;17.51;65.41;100901.28;5093549;28;20044;-53
2021/07/29 06:15:47;;;;;;;14.68;3.83;;;;;;;17.57;65.29;100902.75;5092880;28;20519;-59
2021/07/29 06:18:15;;;;;;;12.02;2.90;;;;;;;17.51;66.92;100895.75;5092906;28;20415;-59
2021/07/29 06:20:42;;;;;;;10.43;3.10;;;;;;;17.48;65.88;100896.38;5093709;28;20044;-53
2021/07/29 06:23:10;;;;;;;15.32;4.00;;;;;;;17.55;65.33;100904.19;5092999;28;20043;-53
2021/07/29 06:25:41;;;;;;;9.00;3.15;;;;;;;17.65;65.25;100909.44;5093471;28;20063;-55
2021/07/29 06:28:13;;;;;;;11.98;3.25;;;;;;;17.73;65.05;100914.22;5093139;28;20048;-58
2021/07/29 06:30:44;;;;;;;13.68;3.72;;;;;;;17.49;64.86;100914.53;5090568;28;20402;-61
2021/07/29 06:33:15;;;;;;;13.93;4.15;;;;;;;17.43;65.77;100908.31;5093351;28;20068;-60
2021/07/29 06:36:02;;;;;;;14.98;3.92;;;;;;;17.48;65.32;100912.09;5091961;28;20073;-61
2021/07/29 06:38:30;;;;;;;11.23;3.35;;;;;;;17.40;66.99;100914.47;5093001;28;20044;-61
2021/07/29 06:40:58;;;;;;;22.63;5.65;;;;;;;17.68;64.90;100923.44;5078520;28;20048;-57
2021/07/29 06:43:26;;;;;;;17.33;4.65;;;;;;;17.67;64.38;100923.75;5093071;28;20040;-60
2021/07/29 06:45:53;;;;;;;15.32;4.72;;;;;;;17.53;64.94;100926.53;5090869;28;20070;-60
2021/07/29 06:48:22;;;;;;;17.00;4.63;;;;;;;17.57;67.10;100932.25;5092623;28;20052;-59
2021/07/29 06:50:49;;;;;;;16.52;5.65;;;;;;;17.39;64.99;100937.63;5092824;28;20044;-59
2021/07/29 06:53:17;;;;;;;15.23;4.97;;;;;;;17.49;65.63;100935.78;5093164;28;20060;-60
2021/07/29 06:55:44;;;;;;;16.58;4.63;;;;;;;17.54;64.24;100939.22;5092879;28;20449;-58
2021/07/29 06:58:12;;;;;;;14.30;4.30;;;;;;;17.67;65.03;100943.03;5091117;28;20578;-62
2021/07/29 07:00:39;;;;;;;13.93;3.50;;;;;;;17.66;65.96;100946.91;5092332;28;20107;-58
2021/07/29 07:03:07;;;;;;;13.48;4.45;;;;;;;17.82;65.19;100939.09;5092296;28;20063;-58
2021/07/29 07:05:35;;;;;;;14.45;3.70;;;;;;;17.57;63.77;100959.81;5092760;28;20044;-57
2021/07/29 07:08:03;;;;;;;15.40;3.42;;;;;;;17.51;64.58;100958.28;5092478;28;20127;-59
2021/07/29 07:10:33;;;;;;;15.77;3.72;;;;;;;17.43;64.60;100957.91;5089164;28;20059;-56
2021/07/29 07:13:00;;;;;;;13.85;3.70;;;;;;;17.44;65.08;100956.00;5088846;28;20070;-55
2021/07/29 07:15:28;;;;;;;12.55;3.72;;;;;;;17.37;64.27;100956.41;5092235;28;20506;-55
2021/07/29 07:17:56;;;;;;;9.00;2.78;;;;;;;17.52;66.40;100957.19;5090500;28;20040;-55
2021/07/29 07:20:24;;;;;;;14.07;3.92;;;;;;;17.54;64.30;100955.75;5092526;28;20052;-56
2021/07/29 07:22:52;;;;;;;15.73;3.75;;;;;;;17.61;64.30;100958.06;5092224;28;20044;-53
2021/07/29 07:25:20;;;;;;;14.85;3.80;;;;;;;17.58;62.96;100961.44;5092476;28;20119;-55
2021/07/29 07:27:48;;;;;;;12.38;3.15;;;;;;;17.42;63.43;100958.22;5091817;28;20040;-55
2021/07/29 07:30:15;;;;;;;12.27;3.30;;;;;;;17.35;64.01;100963.34;5090696;28;20048;-54
2021/07/29 07:32:43;;;;;;;16.10;3.65;;;;;;;17.33;63.69;100971.13;5092120;28;20044;-58
2021/07/29 07:35:11;;;;;;;13.25;3.60;;;;;;;17.39;64.47;100970.69;5091837;28;20032;-56
2021/07/29 07:37:42;;;;;;;16.27;3.25;;;;;;;17.81;65.89;100970.56;5092119;28;20032;-57
2021/07/29 07:40:10;;;;;;;12.65;3.85;;;;;;;17.93;62.65;100979.06;5091720;28;20127;-56
2021/07/29 07:42:38;;;;;;;14.40;3.78;;;;;;;17.83;62.89;100973.81;5091232;28;20032;-57
2021/07/29 07:45:06;;;;;;;17.92;4.78;;;;;;;17.79;62.87;100973.59;5091786;28;20191;-54
2021/07/29 07:47:35;;;;;;;13.48;3.72;;;;;;;17.53;62.65;100975.31;5091238;28;20063;-59
2021/07/29 07:50:04;;;;;;;16.73;4.30;;;;;;;17.36;63.36;100987.81;5091895;28;20051;-53
2021/07/29 07:52:31;;;;;;;12.45;3.10;;;;;;;17.31;63.64;100979.66;5073712;28;20132;-59
2021/07/29 07:55:00;;;;;;;12.52;3.50;;;;;;;17.25;63.41;100975.41;5091990;28;20055;-60
2021/07/29 07:57:27;;;;;;;9.70;3.50;;;;;;;17.32;65.37;100973.06;5090883;28;20562;-57
2021/07/29 07:59:58;;;;;;;10.07;3.22;;;;;;;17.54;63.54;100977.78;5091409;28;20040;-61
2021/07/29 08:02:26;;;;;;;13.52;3.90;;;;;;;17.56;62.17;100980.25;5091467;28;20051;-61
2021/07/29 08:04:54;;;;;;;16.52;3.67;;;;;;;17.58;62.28;100978.81;5091876;28;20036;-59
2021/07/29 08:07:22;;;;;;;13.80;3.40;;;;;;;17.62;62.61;100982.53;5092012;28;20036;-59
2021/07/29 08:09:49;;;;;;;11.10;3.28;;;;;;;17.57;62.73;100970.84;5091574;28;20048;-59
2021/07/29 08:12:17;;;;;;;12.10;3.75;;;;;;;17.57;62.69;100988.16;5085180;28;20498;-60
2021/07/29 08:14:45;;;;;;;15.95;3.42;;;;;;;17.61;63.73;100977.34;5091509;28;20036;-58
2021/07/29 08:17:12;;;;;;;13.90;3.60;;;;;;;17.52;62.13;100993.00;5091926;28;20405;-59
2021/07/29 08:19:40;;;;;;;12.85;3.35;;;;;;;17.65;63.37;100986.59;5089948;28;20040;-59
2021/07/29 08:22:08;;;;;;;12.63;2.80;;;;;;;17.84;64.14;100989.22;5091918;28;20116;-60
2021/07/29 08:24:35;;;;;;;18.30;4.20;;;;;;;17.82;61.35;100989.56;5091568;28;20036;-60
2021/07/29 08:27:03;;;;;;;11.65;3.35;;;;;;;17.77;61.42;100984.09;5091413;28;20032;-59
2021/07/29 08:29:31;;;;;;;9.27;2.72;;;;;;;17.92;64.11;100977.47;5090671;28;20127;-60
2021/07/29 08:31:59;;;;;;;14.30;3.70;;;;;;;17.97;61.24;100979.28;5091500;28;20033;-59
2021/07/29 08:34:27;;;;;;;10.98;3.05;;;;;;;17.97;61.39;100984.78;5091535;28;20102;-58
2021/07/29 08:36:54;;;;;;;13.65;3.90;;;;;;;17.93;60.85;100989.28;5091603;28;20036;-54
2021/07/29 08:39:22;;;;;;;16.27;4.13;;;;;;;17.81;60.77;100982.41;5091352;28;20044;-60
2021/07/29 08:41:51;;;;;;;12.57;3.70;;;;;;;17.89;61.66;100986.34;5091016;28;20124;-56
2021/07/29 08:44:19;;;;;;;15.18;3.53;;;;;;;17.85;61.49;100986.16;5090056;28;20051;-56
2021/07/29 08:46:47;;;;;;;10.00;2.97;;;;;;;17.91;61.28;100984.09;5090792;28;20414;-55
2021/07/29 08:49:15;;;;;;;13.05;3.67;;;;;;;17.95;60.72;100992.56;5091133;28;20048;-53
2021/07/29 08:51:43;;;;;;;8.27;2.80;;;;;;;17.95;60.24;100998.06;5091205;28;20050;-55
2021/07/29 08:54:13;;;;;;;12.52;4.25;;;;;;;17.85;59.72;101005.47;5075385;28;20048;-54
2021/07/29 08:56:40;;;;;;;13.02;3.83;;;;;;;17.84;59.80;100992.78;5093164;28;20044;-58
2021/07/29 08:59:08;;;;;;;16.05;4.53;;;;;;;17.95;59.88;100987.03;5094775;28;20110;-59
2021/07/29 09:01:43;;;;;;;11.63;3.60;;;;;;;18.04;60.45;101001.72;5095192;28;20048;-60
2021/07/29 09:04:13;;;;;;;12.77;3.80;;;;;;;18.26;58.36;100998.13;5094977;28;20056;-59
2021/07/29 09:07:02;;;;;;;16.23;3.78;;;;;;;18.29;58.25;100998.28;5095175;28;20368;-60
2021/07/29 09:09:41;;;;;;;15.20;4.07;;;;;;;18.30;58.82;100999.94;5094299;28;20040;-58
2021/07/29 09:12:24;;;;;;;5.90;2.35;;;;;;;18.52;59.58;101003.78;5094013;28;20048;-61
2021/07/29 09:14:55;;;;;;;14.30;3.92;;;;;;;18.47;58.53;101004.72;5094498;28;20047;-59
2021/07/29 09:17:23;;;;;;;14.52;3.90;;;;;;;18.40;58.77;101003.53;5094672;28;20051;-57
2021/07/29 09:19:56;;;;;;;14.43;4.38;;;;;;;18.23;58.37;101007.84;5094255;28;20048;-58
2021/07/29 09:22:27;;;;;;;7.90;2.70;;;;;;;18.41;58.42;101010.69;5094697;28;20510;-60
2021/07/29 09:25:13;;;;;;;11.93;3.63;;;;;;;18.29;57.56;101012.06;5094128;28;20047;-63
2021/07/29 09:27:42;;;;;;;9.40;3.05;;;;;;;18.23;58.03;101007.84;5082947;28;20046;-59
2021/07/29 09:30:22;;;;;;;20.00;4.57;;;;;;;18.21;57.57;101018.38;5094046;28;20071;-61
2021/07/29 09:33:12;;;;;;;15.32;3.75;;;;;;;18.25;59.85;101011.06;5094658;28;20221;-57
2021/07/29 09:35:53;;;;;;;16.90;4.05;;;;;;;18.29;60.25;101014.84;5094421;28;20039;-60
2021/07/29 09:38:31;;;;;;;14.02;4.47;;;;;;;18.57;57.68;101017.44;5093854;28;20107;-63
2021/07/29 09:41:03;;;;;;;13.35;3.75;;;;;;;18.46;58.54;101021.59;5080330;28;20402;-60
2021/07/29 09:43:33;;;;;;;14.77;4.00;;;;;;;18.57;57.46;101024.88;5094556;28;20064;-57
2021/07/29 09:46:14;;;;;;;10.77;3.70;;;;;;;18.55;56.07;101033.50;5093963;28;20494;-61
2021/07/29 09:48:44;;;;;;;13.35;3.97;;;;;;;18.58;57.66;101029.28;5094094;28;20048;-64
2021/07/29 09:51:12;;;;;;;12.93;2.78;;;;;;;18.63;58.55;101027.19;5080060;28;20036;-61
2021/07/29 09:53:39;;;;;;;13.45;3.90;;;;;;;18.59;55.12;101025.38;5093651;28;20494;-61
2021/07/29 09:56:12;;;;;;;12.07;3.78;;;;;;;18.58;56.33;101018.25;5092771;28;20040;-58
2021/07/29 09:59:02;;;;;;;15.40;4.00;;;;;;;18.64;54.92;101020.56;5093637;28;20119;-62
2021/07/29 10:01:31;;;;;;;6.90;2.67;;;;;;;18.71;59.88;101015.38;5093871;28;20113;-64
2021/07/29 10:04:00;;;;;;;15.18;5.00;;;;;;;18.58;54.47;101009.97;5094010;28;20052;-63
2021/07/29 10:06:33;;;;;;;9.25;3.30;;;;;;;18.55;55.50;101016.94;5076150;28;20043;-61
2021/07/29 10:09:04;;;;;;;11.52;3.85;;;;;;;18.57;55.66;101011.06;5093253;28;20559;-63
2021/07/29 10:11:35;;;;;;;11.77;4.35;;;;;;;18.45;54.80;101009.75;5086060;28;20092;-58
2021/07/29 10:14:03;;;;;;;15.77;4.20;;;;;;;18.37;54.97;101017.97;5092646;28;20113;-65
2021/07/29 10:16:50;;;;;;;13.38;3.88;;;;;;;18.48;56.51;101020.13;4387892;28;10000359;-64
2021/07/29 10:19:18;;;;;;;15.63;3.40;;;;;;;18.43;55.46;101011.19;5091374;28;20080;-59
2021/07/29 10:21:47;;;;;;;14.95;3.72;;;;;;;18.37;54.86;101017.97;5076110;28;20044;-59
2021/07/29 10:24:15;;;;;;;14.73;3.97;;;;;;;18.34;54.95;101010.31;5091298;28;20040;-59
2021/07/29 10:27:01;;;;;;;9.60;3.38;;;;;;;18.36;55.97;101019.09;5090938;28;20048;-63
2021/07/29 10:29:30;;;;;;;7.38;3.22;;;;;;;18.33;55.06;101020.56;5095344;28;20101;-58
2021/07/29 10:32:08;;;;;;;13.02;3.90;;;;;;;18.34;54.91;101021.34;5097333;28;20109;-60
2021/07/29 10:34:36;;;;;;;8.68;2.70;;;;;;;18.58;57.80;101019.03;5094814;28;20036;-61
2021/07/29 10:37:05;;;;;;;7.28;3.08;;;;;;;18.57;58.58;101031.22;5092965;28;20054;-64
2021/07/29 10:39:51;;;;;;;7.65;3.03;;;;;;;18.53;59.53;101033.00;5092760;28;20452;-63
2021/07/29 10:42:31;;;;;;;12.30;3.50;;;;;;;18.57;58.00;101030.38;5091986;28;20089;-61
2021/07/29 10:44:58;;;;;;;12.60;4.05;;;;;;;18.44;57.68;101035.69;5093216;28;20042;-56
2021/07/29 10:47:40;;;;;;;15.52;4.38;;;;;;;18.52;56.79;101029.41;5092772;28;20044;-66
2021/07/29 10:50:10;;;;;;;9.98;3.03;;;;;;;18.48;57.85;101039.44;5093390;28;20055;-62
2021/07/29 10:52:38;;;;;;;10.38;3.75;;;;;;;18.45;58.22;101033.75;5092693;28;20123;-63
2021/07/29 10:55:09;;;;;;;10.23;3.03;;;;;;;18.44;58.92;101037.63;5093412;28;20122;-58
2021/07/29 10:57:38;;;;;;;9.73;3.17;;;;;;;18.43;59.79;101053.38;5092793;28;20139;-61
2021/07/29 11:00:07;;;;;;;15.90;4.45;;;;;;;18.40;61.44;101069.75;4740044;28;10000267;-61
2021/07/29 11:02:40;;;;;;;16.92;5.03;;;;;;;18.22;62.45;101063.31;5089366;28;20040;-61
2021/07/29 11:05:09;;;;;;;22.02;4.72;;;;;;;18.04;64.36;101074.22;5090418;28;20075;-63
2021/07/29 11:07:41;;;;;;;10.60;3.20;;;;;;;17.98;64.30;101080.16;5090188;28;20044;-63
2021/07/29 11:10:14;;;;;;;11.27;3.45;;;;;;;17.74;63.46;101097.75;5088232;28;20054;-64
2021/07/29 11:12:41;;;;;;;12.80;4.30;;;;;;;17.46;64.47;101105.22;5088537;28;20127;-64
2021/07/29 11:15:10;;;;;;;12.05;3.53;;;;;;;17.16;66.21;101098.41;5090055;28;20098;-62
2021/07/29 11:17:38;;;;;;;10.25;3.53;;;;;;;17.12;66.96;101097.38;5089572;28;20036;-62
2021/07/29 11:20:08;;;;;;;10.73;3.53;;;;;;;17.13;67.63;101099.03;5079100;28;20052;-62
2021/07/29 11:22:43;;;;;;;12.65;3.47;;;;;;;17.16;68.07;101087.41;5088901;28;20043;-62
2021/07/29 11:25:11;;;;;;;8.68;3.15;;;;;;;17.16;67.95;101084.66;5079096;28;20056;-62
2021/07/29 11:27:39;;;;;;;12.40;3.40;;;;;;;17.18;68.15;101079.66;5089950;28;20036;-64
2021/07/29 11:30:07;;;;;;;9.70;3.20;;;;;;;17.27;67.61;101083.34;5089789;28;20047;-62
2021/07/29 11:32:45;;;;;;;8.10;2.72;;;;;;;17.36;67.52;101078.72;5090295;28;20525;-61